sensor_id;sensor_type;location;lat;lon;timestamp;temperature;humidity
39951;DHT22;25629;51.444;-2.606;2023-05-14T00:02:09;13.40;1.00
39951;DHT22;25629;51.444;-2.606;2023-05-14T00:04:34;13.40;99.90
39951;DHT22;25629;51.444;-2.606;2023-05-14T00:07:00;13.40;99.90
39951;DHT22;25629;51.444;-2.606;2023-05-14T00:09:25;13.40;99.90
39951;DHT22;25629;51.444;-2.606;2023-05-14T00:11:51;13.30;99.90
39951;DHT22;25629;51.444;-2.606;2023-05-14T00:14:17;13.30;99.90
39951;DHT22;25629;51.444;-2.606;2023-05-14T00:16:42;13.20;99.90
39951;DHT22;25629;51.444;-2.606;2023-05-14T00:19:08;13.20;99.90
39951;DHT22;25629;51.444;-2.606;2023-05-14T00:21:33;13.20;99.90
39951;DHT22;25629;51.444;-2.606;2023-05-14T00:23:59;13.10;99.90
39951;DHT22;25629;51.444;-2.606;2023-05-14T00:26:24;13.10;99.90
39951;DHT22;25629;51.444;-2.606;2023-05-14T00:28:50;13.10;99.90
39951;DHT22;25629;51.444;-2.606;2023-05-14T00:31:15;13.10;99.90
39951;DHT22;25629;51.444;-2.606;2023-05-14T00:33:41;13.00;99.90
39951;DHT22;25629;51.444;-2.606;2023-05-14T00:36:07;13.10;99.90
39951;DHT22;25629;51.444;-2.606;2023-05-14T00:38:32;13.00;99.90
39951;DHT22;25629;51.444;-2.606;2023-05-14T00:40:58;13.00;99.90
39951;DHT22;25629;51.444;-2.606;2023-05-14T00:43:23;13.00;99.90
39951;DHT22;25629;51.444;-2.606;2023-05-14T00:45:51;12.90;99.90
39951;DHT22;25629;51.444;-2.606;2023-05-14T00:48:17;12.90;99.90
39951;DHT22;25629;51.444;-2.606;2023-05-14T00:50:42;12.80;1.00
39951;DHT22;25629;51.444;-2.606;2023-05-14T00:53:08;12.80;1.00
39951;DHT22;25629;51.444;-2.606;2023-05-14T00:55:35;12.80;1.00
39951;DHT22;25629;51.444;-2.606;2023-05-14T00:58:02;12.80;1.00
39951;DHT22;25629;51.444;-2.606;2023-05-14T01:00:29;12.80;1.00
39951;DHT22;25629;51.444;-2.606;2023-05-14T01:02:55;12.70;1.00
39951;DHT22;25629;51.444;-2.606;2023-05-14T01:05:31;12.70;1.00
39951;DHT22;25629;51.444;-2.606;2023-05-14T01:10:41;12.60;1.00
39951;DHT22;25629;51.444;-2.606;2023-05-14T01:13:12;12.60;1.00
39951;DHT22;25629;51.444;-2.606;2023-05-14T01:15:39;12.60;1.00
39951;DHT22;25629;51.444;-2.606;2023-05-14T01:18:07;12.60;1.00
39951;DHT22;25629;51.444;-2.606;2023-05-14T01:20:33;12.50;1.00
39951;DHT22;25629;51.444;-2.606;2023-05-14T01:22:59;12.50;1.00
39951;DHT22;25629;51.444;-2.606;2023-05-14T01:25:24;12.40;1.00
39951;DHT22;25629;51.444;-2.606;2023-05-14T01:30:24;12.40;1.00
39951;DHT22;25629;51.444;-2.606;2023-05-14T01:32:53;12.40;1.00
39951;DHT22;25629;51.444;-2.606;2023-05-14T01:35:21;12.40;1.00
39951;DHT22;25629;51.444;-2.606;2023-05-14T01:37:47;12.30;1.00
39951;DHT22;25629;51.444;-2.606;2023-05-14T01:40:13;12.40;1.00
39951;DHT22;25629;51.444;-2.606;2023-05-14T01:42:38;12.40;1.00
39951;DHT22;25629;51.444;-2.606;2023-05-14T01:45:04;12.30;1.00
39951;DHT22;25629;51.444;-2.606;2023-05-14T01:47:30;12.10;1.00
39951;DHT22;25629;51.444;-2.606;2023-05-14T01:49:55;12.00;1.00
39951;DHT22;25629;51.444;-2.606;2023-05-14T01:52:21;12.00;1.00
39951;DHT22;25629;51.444;-2.606;2023-05-14T01:54:47;11.90;1.00
39951;DHT22;25629;51.444;-2.606;2023-05-14T01:57:12;11.80;1.00
39951;DHT22;25629;51.444;-2.606;2023-05-14T01:59:38;11.80;1.00
39951;DHT22;25629;51.444;-2.606;2023-05-14T02:02:03;11.90;1.00
39951;DHT22;25629;51.444;-2.606;2023-05-14T02:04:29;11.90;1.00
39951;DHT22;25629;51.444;-2.606;2023-05-14T02:06:54;11.90;1.00
39951;DHT22;25629;51.444;-2.606;2023-05-14T02:09:20;11.90;1.00
39951;DHT22;25629;51.444;-2.606;2023-05-14T02:11:45;11.80;1.00
39951;DHT22;25629;51.444;-2.606;2023-05-14T02:14:11;11.70;1.00
39951;DHT22;25629;51.444;-2.606;2023-05-14T02:16:37;11.60;1.00
39951;DHT22;25629;51.444;-2.606;2023-05-14T02:19:02;11.50;1.00
39951;DHT22;25629;51.444;-2.606;2023-05-14T02:21:28;11.50;1.00
39951;DHT22;25629;51.444;-2.606;2023-05-14T02:23:53;11.40;1.00
39951;DHT22;25629;51.444;-2.606;2023-05-14T02:26:20;11.40;1.00
39951;DHT22;25629;51.444;-2.606;2023-05-14T02:28:45;11.30;1.00
39951;DHT22;25629;51.444;-2.606;2023-05-14T02:31:11;11.30;1.00
39951;DHT22;25629;51.444;-2.606;2023-05-14T02:33:37;11.30;1.00
39951;DHT22;25629;51.444;-2.606;2023-05-14T02:36:02;11.30;1.00
39951;DHT22;25629;51.444;-2.606;2023-05-14T02:38:28;11.30;1.00
39951;DHT22;25629;51.444;-2.606;2023-05-14T02:40:53;11.20;7.90
39951;DHT22;25629;51.444;-2.606;2023-05-14T02:43:19;11.20;12.30
39951;DHT22;25629;51.444;-2.606;2023-05-14T02:45:44;11.30;18.70
39951;DHT22;25629;51.444;-2.606;2023-05-14T02:48:10;11.30;14.60
39951;DHT22;25629;51.444;-2.606;2023-05-14T02:50:35;11.40;15.20
39951;DHT22;25629;51.444;-2.606;2023-05-14T02:53:01;11.40;15.90
39951;DHT22;25629;51.444;-2.606;2023-05-14T02:55:27;11.40;15.20
39951;DHT22;25629;51.444;-2.606;2023-05-14T02:57:52;11.30;12.20
39951;DHT22;25629;51.444;-2.606;2023-05-14T03:00:18;11.40;13.10
39951;DHT22;25629;51.444;-2.606;2023-05-14T03:02:43;11.30;10.80
39951;DHT22;25629;51.444;-2.606;2023-05-14T03:05:09;11.30;11.20
39951;DHT22;25629;51.444;-2.606;2023-05-14T03:07:35;11.30;12.00
39951;DHT22;25629;51.444;-2.606;2023-05-14T03:10:00;11.30;14.30
39951;DHT22;25629;51.444;-2.606;2023-05-14T03:12:26;11.40;10.80
39951;DHT22;25629;51.444;-2.606;2023-05-14T03:14:51;11.40;8.70
39951;DHT22;25629;51.444;-2.606;2023-05-14T03:17:17;11.40;5.60
39951;DHT22;25629;51.444;-2.606;2023-05-14T03:19:42;11.40;8.80
39951;DHT22;25629;51.444;-2.606;2023-05-14T03:22:08;11.40;7.70
39951;DHT22;25629;51.444;-2.606;2023-05-14T03:24:33;11.40;7.50
39951;DHT22;25629;51.444;-2.606;2023-05-14T03:26:59;11.30;4.20
39951;DHT22;25629;51.444;-2.606;2023-05-14T03:29:25;11.30;9.70
39951;DHT22;25629;51.444;-2.606;2023-05-14T03:31:50;11.20;12.90
39951;DHT22;25629;51.444;-2.606;2023-05-14T03:34:16;11.20;19.90
39951;DHT22;25629;51.444;-2.606;2023-05-14T03:36:41;11.20;21.00
39951;DHT22;25629;51.444;-2.606;2023-05-14T03:39:07;11.20;18.50
39951;DHT22;25629;51.444;-2.606;2023-05-14T03:41:33;11.20;21.60
39951;DHT22;25629;51.444;-2.606;2023-05-14T03:43:59;11.10;21.50
39951;DHT22;25629;51.444;-2.606;2023-05-14T03:46:25;11.10;23.60
39951;DHT22;25629;51.444;-2.606;2023-05-14T03:48:50;11.10;22.40
39951;DHT22;25629;51.444;-2.606;2023-05-14T03:51:16;11.10;22.50
39951;DHT22;25629;51.444;-2.606;2023-05-14T03:53:41;11.10;21.80
39951;DHT22;25629;51.444;-2.606;2023-05-14T03:56:07;11.00;20.40
39951;DHT22;25629;51.444;-2.606;2023-05-14T03:58:32;10.90;23.70
39951;DHT22;25629;51.444;-2.606;2023-05-14T04:00:58;10.90;21.20
39951;DHT22;25629;51.444;-2.606;2023-05-14T04:03:24;10.90;20.60
39951;DHT22;25629;51.444;-2.606;2023-05-14T04:05:50;11.00;18.40
39951;DHT22;25629;51.444;-2.606;2023-05-14T04:08:15;10.90;10.90
39951;DHT22;25629;51.444;-2.606;2023-05-14T04:10:41;10.70;1.00
39951;DHT22;25629;51.444;-2.606;2023-05-14T04:13:07;10.70;1.00
39951;DHT22;25629;51.444;-2.606;2023-05-14T04:15:32;10.70;1.00
39951;DHT22;25629;51.444;-2.606;2023-05-14T04:18:00;10.60;1.00
39951;DHT22;25629;51.444;-2.606;2023-05-14T04:20:25;10.60;7.60
39951;DHT22;25629;51.444;-2.606;2023-05-14T04:22:51;10.60;7.50
39951;DHT22;25629;51.444;-2.606;2023-05-14T04:25:16;10.60;6.90
39951;DHT22;25629;51.444;-2.606;2023-05-14T04:27:42;10.60;10.40
39951;DHT22;25629;51.444;-2.606;2023-05-14T04:30:08;10.60;9.60
39951;DHT22;25629;51.444;-2.606;2023-05-14T04:32:34;10.60;8.50
39951;DHT22;25629;51.444;-2.606;2023-05-14T04:34:59;10.60;9.80
39951;DHT22;25629;51.444;-2.606;2023-05-14T04:37:25;10.70;10.20
39951;DHT22;25629;51.444;-2.606;2023-05-14T04:39:50;10.60;13.80
39951;DHT22;25629;51.444;-2.606;2023-05-14T04:42:16;10.70;10.90
39951;DHT22;25629;51.444;-2.606;2023-05-14T04:44:41;10.70;10.80
39951;DHT22;25629;51.444;-2.606;2023-05-14T04:47:07;10.70;9.50
39951;DHT22;25629;51.444;-2.606;2023-05-14T04:49:33;10.80;6.20
39951;DHT22;25629;51.444;-2.606;2023-05-14T04:51:58;10.80;5.50
39951;DHT22;25629;51.444;-2.606;2023-05-14T04:54:24;10.80;5.20
39951;DHT22;25629;51.444;-2.606;2023-05-14T04:56:49;10.80;1.10
39951;DHT22;25629;51.444;-2.606;2023-05-14T04:59:15;10.90;1.00
39951;DHT22;25629;51.444;-2.606;2023-05-14T05:01:40;10.80;1.00
39951;DHT22;25629;51.444;-2.606;2023-05-14T05:04:06;10.80;1.00
39951;DHT22;25629;51.444;-2.606;2023-05-14T05:06:32;10.80;1.00
39951;DHT22;25629;51.444;-2.606;2023-05-14T05:08:57;10.80;1.00
39951;DHT22;25629;51.444;-2.606;2023-05-14T05:11:23;10.80;1.00
39951;DHT22;25629;51.444;-2.606;2023-05-14T05:13:49;10.80;1.00
39951;DHT22;25629;51.444;-2.606;2023-05-14T05:16:14;10.80;1.00
39951;DHT22;25629;51.444;-2.606;2023-05-14T05:18:40;10.90;1.00
39951;DHT22;25629;51.444;-2.606;2023-05-14T05:21:05;11.00;1.00
39951;DHT22;25629;51.444;-2.606;2023-05-14T05:23:31;11.00;1.00
39951;DHT22;25629;51.444;-2.606;2023-05-14T05:25:56;11.10;1.00
39951;DHT22;25629;51.444;-2.606;2023-05-14T05:28:22;11.10;1.00
39951;DHT22;25629;51.444;-2.606;2023-05-14T05:30:47;11.10;1.00
39951;DHT22;25629;51.444;-2.606;2023-05-14T05:33:13;11.20;1.00
39951;DHT22;25629;51.444;-2.606;2023-05-14T05:35:39;11.10;1.00
39951;DHT22;25629;51.444;-2.606;2023-05-14T05:38:04;11.10;1.00
39951;DHT22;25629;51.444;-2.606;2023-05-14T05:40:30;11.10;1.00
39951;DHT22;25629;51.444;-2.606;2023-05-14T05:42:55;11.20;3.30
39951;DHT22;25629;51.444;-2.606;2023-05-14T05:45:21;11.20;1.00
39951;DHT22;25629;51.444;-2.606;2023-05-14T05:47:46;11.20;1.00
39951;DHT22;25629;51.444;-2.606;2023-05-14T05:50:12;11.20;6.00
39951;DHT22;25629;51.444;-2.606;2023-05-14T05:52:38;11.30;5.50
39951;DHT22;25629;51.444;-2.606;2023-05-14T05:55:03;11.30;1.00
39951;DHT22;25629;51.444;-2.606;2023-05-14T05:57:29;11.40;1.00
39951;DHT22;25629;51.444;-2.606;2023-05-14T05:59:55;11.50;1.00
39951;DHT22;25629;51.444;-2.606;2023-05-14T06:02:20;11.40;1.00
39951;DHT22;25629;51.444;-2.606;2023-05-14T06:04:46;11.60;1.00
39951;DHT22;25629;51.444;-2.606;2023-05-14T06:07:11;11.60;1.00
39951;DHT22;25629;51.444;-2.606;2023-05-14T06:09:37;11.70;1.00
39951;DHT22;25629;51.444;-2.606;2023-05-14T06:12:02;11.70;1.00
39951;DHT22;25629;51.444;-2.606;2023-05-14T06:14:28;11.80;1.00
39951;DHT22;25629;51.444;-2.606;2023-05-14T06:16:54;11.80;1.00
39951;DHT22;25629;51.444;-2.606;2023-05-14T06:19:20;11.80;1.00
39951;DHT22;25629;51.444;-2.606;2023-05-14T06:21:46;11.90;1.00
39951;DHT22;25629;51.444;-2.606;2023-05-14T06:24:11;11.90;1.00
39951;DHT22;25629;51.444;-2.606;2023-05-14T06:26:37;12.00;1.00
39951;DHT22;25629;51.444;-2.606;2023-05-14T06:29:03;12.00;1.00
39951;DHT22;25629;51.444;-2.606;2023-05-14T06:31:28;12.00;1.00
39951;DHT22;25629;51.444;-2.606;2023-05-14T06:33:54;12.10;1.00
39951;DHT22;25629;51.444;-2.606;2023-05-14T06:36:20;12.20;1.00
39951;DHT22;25629;51.444;-2.606;2023-05-14T06:38:45;12.40;1.00
39951;DHT22;25629;51.444;-2.606;2023-05-14T06:41:11;12.50;1.00
39951;DHT22;25629;51.444;-2.606;2023-05-14T06:43:36;12.70;1.00
39951;DHT22;25629;51.444;-2.606;2023-05-14T06:46:02;12.90;1.00
39951;DHT22;25629;51.444;-2.606;2023-05-14T06:48:27;13.10;99.90
39951;DHT22;25629;51.444;-2.606;2023-05-14T06:50:53;13.30;99.90
39951;DHT22;25629;51.444;-2.606;2023-05-14T06:53:19;13.30;76.00
39951;DHT22;25629;51.444;-2.606;2023-05-14T06:55:46;13.40;96.60
39951;DHT22;25629;51.444;-2.606;2023-05-14T06:58:12;13.60;1.00
39951;DHT22;25629;51.444;-2.606;2023-05-14T07:00:37;13.70;1.00
39951;DHT22;25629;51.444;-2.606;2023-05-14T07:03:04;13.80;9.80
39951;DHT22;25629;51.444;-2.606;2023-05-14T07:05:29;14.00;99.90
39951;DHT22;25629;51.444;-2.606;2023-05-14T07:07:55;14.10;99.90
39951;DHT22;25629;51.444;-2.606;2023-05-14T07:10:20;14.30;99.90
39951;DHT22;25629;51.444;-2.606;2023-05-14T07:12:46;14.20;99.90
39951;DHT22;25629;51.444;-2.606;2023-05-14T07:15:12;14.20;99.90
39951;DHT22;25629;51.444;-2.606;2023-05-14T07:17:37;14.30;99.90
39951;DHT22;25629;51.444;-2.606;2023-05-14T07:20:03;14.40;99.90
39951;DHT22;25629;51.444;-2.606;2023-05-14T07:22:29;14.30;1.00
39951;DHT22;25629;51.444;-2.606;2023-05-14T07:24:54;14.30;1.00
39951;DHT22;25629;51.444;-2.606;2023-05-14T07:27:20;14.20;1.00
39951;DHT22;25629;51.444;-2.606;2023-05-14T07:29:45;14.00;1.00
39951;DHT22;25629;51.444;-2.606;2023-05-14T07:32:11;13.90;1.00
39951;DHT22;25629;51.444;-2.606;2023-05-14T07:34:36;13.80;11.50
39951;DHT22;25629;51.444;-2.606;2023-05-14T07:37:02;13.80;18.50
39951;DHT22;25629;51.444;-2.606;2023-05-14T07:39:27;13.70;23.10
39951;DHT22;25629;51.444;-2.606;2023-05-14T07:41:53;13.70;28.60
39951;DHT22;25629;51.444;-2.606;2023-05-14T07:44:22;13.70;29.90
39951;DHT22;25629;51.444;-2.606;2023-05-14T07:46:47;13.70;29.90
39951;DHT22;25629;51.444;-2.606;2023-05-14T07:49:13;13.70;32.80
39951;DHT22;25629;51.444;-2.606;2023-05-14T07:51:38;13.70;30.80
39951;DHT22;25629;51.444;-2.606;2023-05-14T07:54:04;13.80;25.70
39951;DHT22;25629;51.444;-2.606;2023-05-14T07:56:30;13.70;32.60
39951;DHT22;25629;51.444;-2.606;2023-05-14T07:58:55;13.80;36.50
39951;DHT22;25629;51.444;-2.606;2023-05-14T08:01:21;13.80;28.80
39951;DHT22;25629;51.444;-2.606;2023-05-14T08:03:46;13.80;29.60
39951;DHT22;25629;51.444;-2.606;2023-05-14T08:06:12;13.80;32.30
39951;DHT22;25629;51.444;-2.606;2023-05-14T08:08:38;13.70;34.00
39951;DHT22;25629;51.444;-2.606;2023-05-14T08:11:03;13.70;41.50
39951;DHT22;25629;51.444;-2.606;2023-05-14T08:13:29;13.80;41.80
39951;DHT22;25629;51.444;-2.606;2023-05-14T08:15:55;13.90;39.10
39951;DHT22;25629;51.444;-2.606;2023-05-14T08:18:20;13.90;36.80
39951;DHT22;25629;51.444;-2.606;2023-05-14T08:20:46;14.00;35.70
39951;DHT22;25629;51.444;-2.606;2023-05-14T08:23:12;14.00;35.50
39951;DHT22;25629;51.444;-2.606;2023-05-14T08:25:38;14.00;33.70
39951;DHT22;25629;51.444;-2.606;2023-05-14T08:28:03;14.00;38.40
39951;DHT22;25629;51.444;-2.606;2023-05-14T08:30:29;14.00;35.90
39951;DHT22;25629;51.444;-2.606;2023-05-14T08:32:55;14.00;41.50
39951;DHT22;25629;51.444;-2.606;2023-05-14T08:35:20;14.20;30.10
39951;DHT22;25629;51.444;-2.606;2023-05-14T08:37:46;14.40;23.40
39951;DHT22;25629;51.444;-2.606;2023-05-14T08:40:11;14.60;7.40
39951;DHT22;25629;51.444;-2.606;2023-05-14T08:42:37;14.70;1.00
39951;DHT22;25629;51.444;-2.606;2023-05-14T08:45:10;14.90;1.00
39951;DHT22;25629;51.444;-2.606;2023-05-14T08:47:37;15.10;1.00
39951;DHT22;25629;51.444;-2.606;2023-05-14T08:50:04;15.30;1.00
39951;DHT22;25629;51.444;-2.606;2023-05-14T08:52:30;15.30;99.90
39951;DHT22;25629;51.444;-2.606;2023-05-14T08:54:57;15.40;99.90
39951;DHT22;25629;51.444;-2.606;2023-05-14T08:57:24;15.50;99.90
39951;DHT22;25629;51.444;-2.606;2023-05-14T08:59:51;15.60;1.00
39951;DHT22;25629;51.444;-2.606;2023-05-14T09:02:17;15.50;1.00
39951;DHT22;25629;51.444;-2.606;2023-05-14T09:04:44;15.50;34.90
39951;DHT22;25629;51.444;-2.606;2023-05-14T09:07:10;15.60;99.90
39951;DHT22;25629;51.444;-2.606;2023-05-14T09:09:36;15.70;99.90
39951;DHT22;25629;51.444;-2.606;2023-05-14T09:12:02;15.70;1.00
39951;DHT22;25629;51.444;-2.606;2023-05-14T09:14:28;15.70;1.00
39951;DHT22;25629;51.444;-2.606;2023-05-14T09:16:53;15.50;1.00
39951;DHT22;25629;51.444;-2.606;2023-05-14T09:19:19;15.40;99.90
39951;DHT22;25629;51.444;-2.606;2023-05-14T09:21:45;15.20;99.90
39951;DHT22;25629;51.444;-2.606;2023-05-14T09:24:22;15.20;1.00
39951;DHT22;25629;51.444;-2.606;2023-05-14T09:26:48;15.40;1.00
39951;DHT22;25629;51.444;-2.606;2023-05-14T09:29:14;15.70;99.90
39951;DHT22;25629;51.444;-2.606;2023-05-14T09:31:42;16.00;99.90
39951;DHT22;25629;51.444;-2.606;2023-05-14T09:34:07;16.30;1.00
39951;DHT22;25629;51.444;-2.606;2023-05-14T09:36:33;16.70;99.90
39951;DHT22;25629;51.444;-2.606;2023-05-14T09:38:59;16.60;99.90
39951;DHT22;25629;51.444;-2.606;2023-05-14T09:41:25;16.60;99.90
39951;DHT22;25629;51.444;-2.606;2023-05-14T09:43:50;16.80;1.00
39951;DHT22;25629;51.444;-2.606;2023-05-14T09:46:16;17.00;1.00
39951;DHT22;25629;51.444;-2.606;2023-05-14T09:48:42;17.20;99.90
39951;DHT22;25629;51.444;-2.606;2023-05-14T09:51:08;17.20;99.90
39951;DHT22;25629;51.444;-2.606;2023-05-14T09:53:34;17.10;99.90
39951;DHT22;25629;51.444;-2.606;2023-05-14T09:55:59;17.20;74.50
39951;DHT22;25629;51.444;-2.606;2023-05-14T09:58:25;17.40;9.40
39951;DHT22;25629;51.444;-2.606;2023-05-14T10:00:51;17.50;1.00
39951;DHT22;25629;51.444;-2.606;2023-05-14T10:03:16;17.80;1.00
39951;DHT22;25629;51.444;-2.606;2023-05-14T10:05:42;18.00;1.00
39951;DHT22;25629;51.444;-2.606;2023-05-14T10:08:13;17.90;1.00
39951;DHT22;25629;51.444;-2.606;2023-05-14T10:10:40;17.70;1.00
39951;DHT22;25629;51.444;-2.606;2023-05-14T10:13:11;17.80;1.00
39951;DHT22;25629;51.444;-2.606;2023-05-14T10:15:47;17.80;1.00
39951;DHT22;25629;51.444;-2.606;2023-05-14T10:18:15;17.90;1.00
39951;DHT22;25629;51.444;-2.606;2023-05-14T10:20:41;18.30;99.90
39951;DHT22;25629;51.444;-2.606;2023-05-14T10:23:07;18.50;99.90
39951;DHT22;25629;51.444;-2.606;2023-05-14T10:25:33;19.00;99.90
39951;DHT22;25629;51.444;-2.606;2023-05-14T10:27:59;19.40;99.90
39951;DHT22;25629;51.444;-2.606;2023-05-14T10:30:26;20.00;99.90
39951;DHT22;25629;51.444;-2.606;2023-05-14T10:33:10;20.10;99.90
39951;DHT22;25629;51.444;-2.606;2023-05-14T10:35:56;20.10;99.90
39951;DHT22;25629;51.444;-2.606;2023-05-14T10:38:23;20.00;99.90
39951;DHT22;25629;51.444;-2.606;2023-05-14T10:40:55;20.00;99.90
39951;DHT22;25629;51.444;-2.606;2023-05-14T10:43:23;20.00;99.90
39951;DHT22;25629;51.444;-2.606;2023-05-14T10:45:50;20.00;99.90
39951;DHT22;25629;51.444;-2.606;2023-05-14T10:48:15;19.70;99.90
39951;DHT22;25629;51.444;-2.606;2023-05-14T10:50:41;19.30;99.90
39951;DHT22;25629;51.444;-2.606;2023-05-14T10:53:09;19.00;99.90
39951;DHT22;25629;51.444;-2.606;2023-05-14T10:55:35;18.50;99.90
39951;DHT22;25629;51.444;-2.606;2023-05-14T10:58:03;18.10;99.90
39951;DHT22;25629;51.444;-2.606;2023-05-14T11:00:28;17.80;99.90
39951;DHT22;25629;51.444;-2.606;2023-05-14T11:02:57;17.80;99.90
39951;DHT22;25629;51.444;-2.606;2023-05-14T11:05:22;17.70;99.90
39951;DHT22;25629;51.444;-2.606;2023-05-14T11:07:51;17.70;99.90
39951;DHT22;25629;51.444;-2.606;2023-05-14T11:10:20;17.50;99.90
39951;DHT22;25629;51.444;-2.606;2023-05-14T11:12:47;17.60;99.90
39951;DHT22;25629;51.444;-2.606;2023-05-14T11:15:13;17.80;99.90
39951;DHT22;25629;51.444;-2.606;2023-05-14T11:17:40;18.00;99.90
39951;DHT22;25629;51.444;-2.606;2023-05-14T11:20:06;18.20;99.90
39951;DHT22;25629;51.444;-2.606;2023-05-14T11:22:33;18.20;99.90
39951;DHT22;25629;51.444;-2.606;2023-05-14T11:24:59;18.30;99.90
39951;DHT22;25629;51.444;-2.606;2023-05-14T11:27:24;18.60;99.90
39951;DHT22;25629;51.444;-2.606;2023-05-14T11:29:51;18.90;99.90
39951;DHT22;25629;51.444;-2.606;2023-05-14T11:32:17;18.90;99.90
39951;DHT22;25629;51.444;-2.606;2023-05-14T11:34:43;18.90;99.90
39951;DHT22;25629;51.444;-2.606;2023-05-14T11:37:10;18.80;99.90
39951;DHT22;25629;51.444;-2.606;2023-05-14T11:39:37;18.90;99.90
39951;DHT22;25629;51.444;-2.606;2023-05-14T11:42:09;19.00;99.90
39951;DHT22;25629;51.444;-2.606;2023-05-14T11:44:39;19.00;99.90
39951;DHT22;25629;51.444;-2.606;2023-05-14T11:47:05;19.00;99.90
39951;DHT22;25629;51.444;-2.606;2023-05-14T11:49:31;19.00;99.90
39951;DHT22;25629;51.444;-2.606;2023-05-14T11:51:57;19.00;99.90
39951;DHT22;25629;51.444;-2.606;2023-05-14T11:54:32;19.00;99.90
39951;DHT22;25629;51.444;-2.606;2023-05-14T11:56:58;19.00;99.90
39951;DHT22;25629;51.444;-2.606;2023-05-14T11:59:27;19.00;99.90
39951;DHT22;25629;51.444;-2.606;2023-05-14T12:01:53;19.00;99.90
39951;DHT22;25629;51.444;-2.606;2023-05-14T12:04:19;18.70;99.90
39951;DHT22;25629;51.444;-2.606;2023-05-14T12:06:52;18.70;99.90
39951;DHT22;25629;51.444;-2.606;2023-05-14T12:09:21;18.80;99.90
39951;DHT22;25629;51.444;-2.606;2023-05-14T12:11:47;18.90;99.90
39951;DHT22;25629;51.444;-2.606;2023-05-14T12:14:22;19.00;99.90
39951;DHT22;25629;51.444;-2.606;2023-05-14T12:16:48;19.10;99.90
39951;DHT22;25629;51.444;-2.606;2023-05-14T12:19:15;19.40;99.90
39951;DHT22;25629;51.444;-2.606;2023-05-14T12:21:44;19.80;99.90
39951;DHT22;25629;51.444;-2.606;2023-05-14T12:24:11;19.90;99.90
39951;DHT22;25629;51.444;-2.606;2023-05-14T12:26:37;20.00;99.90
39951;DHT22;25629;51.444;-2.606;2023-05-14T12:29:03;20.10;99.90
39951;DHT22;25629;51.444;-2.606;2023-05-14T12:31:29;20.50;99.90
39951;DHT22;25629;51.444;-2.606;2023-05-14T12:33:55;20.50;99.90
39951;DHT22;25629;51.444;-2.606;2023-05-14T12:36:21;20.70;99.90
39951;DHT22;25629;51.444;-2.606;2023-05-14T12:38:47;20.80;99.90
39951;DHT22;25629;51.444;-2.606;2023-05-14T12:41:12;21.20;99.90
39951;DHT22;25629;51.444;-2.606;2023-05-14T12:43:41;21.50;99.90
39951;DHT22;25629;51.444;-2.606;2023-05-14T12:46:07;21.60;99.90
39951;DHT22;25629;51.444;-2.606;2023-05-14T12:48:32;22.10;99.90
39951;DHT22;25629;51.444;-2.606;2023-05-14T12:50:58;21.90;99.90
39951;DHT22;25629;51.444;-2.606;2023-05-14T12:53:23;21.80;99.90
39951;DHT22;25629;51.444;-2.606;2023-05-14T12:55:49;22.10;99.90
39951;DHT22;25629;51.444;-2.606;2023-05-14T12:58:14;22.60;99.90
39951;DHT22;25629;51.444;-2.606;2023-05-14T13:00:40;23.20;99.90
39951;DHT22;25629;51.444;-2.606;2023-05-14T13:03:06;23.40;99.90
39951;DHT22;25629;51.444;-2.606;2023-05-14T13:05:31;23.30;99.90
39951;DHT22;25629;51.444;-2.606;2023-05-14T13:07:57;23.30;99.90
39951;DHT22;25629;51.444;-2.606;2023-05-14T13:10:23;23.30;99.90
39951;DHT22;25629;51.444;-2.606;2023-05-14T13:12:49;23.30;99.90
39951;DHT22;25629;51.444;-2.606;2023-05-14T13:15:17;23.60;99.90
39951;DHT22;25629;51.444;-2.606;2023-05-14T13:17:42;23.60;99.90
39951;DHT22;25629;51.444;-2.606;2023-05-14T13:20:08;23.70;99.90
39951;DHT22;25629;51.444;-2.606;2023-05-14T13:22:34;23.60;99.90
39951;DHT22;25629;51.444;-2.606;2023-05-14T13:24:59;23.70;99.90
39951;DHT22;25629;51.444;-2.606;2023-05-14T13:27:25;23.90;99.90
39951;DHT22;25629;51.444;-2.606;2023-05-14T13:29:50;24.40;99.90
39951;DHT22;25629;51.444;-2.606;2023-05-14T13:32:16;24.70;99.90
39951;DHT22;25629;51.444;-2.606;2023-05-14T13:34:41;24.90;99.90
39951;DHT22;25629;51.444;-2.606;2023-05-14T13:37:08;25.00;99.90
39951;DHT22;25629;51.444;-2.606;2023-05-14T13:39:34;25.50;99.90
39951;DHT22;25629;51.444;-2.606;2023-05-14T13:41:59;25.50;99.90
39951;DHT22;25629;51.444;-2.606;2023-05-14T13:44:25;25.20;99.90
39951;DHT22;25629;51.444;-2.606;2023-05-14T13:46:51;25.40;99.90
39951;DHT22;25629;51.444;-2.606;2023-05-14T13:49:17;25.60;99.90
39951;DHT22;25629;51.444;-2.606;2023-05-14T13:51:42;25.80;99.90
39951;DHT22;25629;51.444;-2.606;2023-05-14T13:54:08;25.70;99.90
39951;DHT22;25629;51.444;-2.606;2023-05-14T13:56:34;25.40;99.90
39951;DHT22;25629;51.444;-2.606;2023-05-14T13:58:59;25.50;99.90
39951;DHT22;25629;51.444;-2.606;2023-05-14T14:01:25;25.50;99.90
39951;DHT22;25629;51.444;-2.606;2023-05-14T14:03:51;25.50;99.90
39951;DHT22;25629;51.444;-2.606;2023-05-14T14:06:16;25.60;99.90
39951;DHT22;25629;51.444;-2.606;2023-05-14T14:08:42;26.00;99.90
39951;DHT22;25629;51.444;-2.606;2023-05-14T14:11:07;26.30;99.90
39951;DHT22;25629;51.444;-2.606;2023-05-14T14:13:33;26.10;99.90
39951;DHT22;25629;51.444;-2.606;2023-05-14T14:15:58;25.70;99.90
39951;DHT22;25629;51.444;-2.606;2023-05-14T14:18:24;25.20;99.90
39951;DHT22;25629;51.444;-2.606;2023-05-14T14:20:49;24.90;99.90
39951;DHT22;25629;51.444;-2.606;2023-05-14T14:23:15;25.30;99.90
39951;DHT22;25629;51.444;-2.606;2023-05-14T14:25:41;25.80;99.90
39951;DHT22;25629;51.444;-2.606;2023-05-14T14:28:06;26.10;99.90
39951;DHT22;25629;51.444;-2.606;2023-05-14T14:30:32;26.80;99.90
39951;DHT22;25629;51.444;-2.606;2023-05-14T14:32:57;27.10;99.90
39951;DHT22;25629;51.444;-2.606;2023-05-14T14:35:25;27.30;99.90
39951;DHT22;25629;51.444;-2.606;2023-05-14T14:37:51;27.00;99.90
39951;DHT22;25629;51.444;-2.606;2023-05-14T14:40:18;26.60;99.90
39951;DHT22;25629;51.444;-2.606;2023-05-14T14:42:44;25.70;99.90
39951;DHT22;25629;51.444;-2.606;2023-05-14T14:45:09;24.50;99.90
39951;DHT22;25629;51.444;-2.606;2023-05-14T14:47:35;23.90;99.90
39951;DHT22;25629;51.444;-2.606;2023-05-14T14:50:01;23.30;99.90
39951;DHT22;25629;51.444;-2.606;2023-05-14T14:52:26;22.80;99.90
39951;DHT22;25629;51.444;-2.606;2023-05-14T14:54:53;22.50;99.90
39951;DHT22;25629;51.444;-2.606;2023-05-14T14:57:18;22.20;99.90
39951;DHT22;25629;51.444;-2.606;2023-05-14T14:59:44;22.00;99.90
39951;DHT22;25629;51.444;-2.606;2023-05-14T15:02:10;21.70;99.90
39951;DHT22;25629;51.444;-2.606;2023-05-14T15:04:36;21.20;99.90
39951;DHT22;25629;51.444;-2.606;2023-05-14T15:07:03;20.80;99.90
39951;DHT22;25629;51.444;-2.606;2023-05-14T15:09:29;20.60;99.90
39951;DHT22;25629;51.444;-2.606;2023-05-14T15:11:55;20.60;99.90
39951;DHT22;25629;51.444;-2.606;2023-05-14T15:14:21;20.50;99.90
39951;DHT22;25629;51.444;-2.606;2023-05-14T15:16:46;20.60;99.90
39951;DHT22;25629;51.444;-2.606;2023-05-14T15:19:12;20.40;99.90
39951;DHT22;25629;51.444;-2.606;2023-05-14T15:21:37;20.40;99.90